Time;durP1;ratioP1;P1;durP2;ratioP2;P2;SDS_P1;SDS_P2;PMS_P1;PMS_P2;Temp;Humidity;BMP_temperature;BMP_pressure;BME280_temperature;BME280_humidity;BME280_pressure;Samples;Min_cycle;Max_cycle;Signal;HPM_P1;HPM_P2
2023/10/03 00:27:49;;;;;;;;;;;;;;;;;;;;;
2023/10/03 00:31:24;;;;;;;42.03;25.07;;;17.30;99.90;;;;;;4829862;29;20494;-78
2023/10/03 05:15:28;;;;;;;19.13;12.40;;;16.10;99.90;;;;;;4803594;29;20460;-81
2023/10/03 05:18:03;;;;;;;18.77;12.57;;;16.30;99.90;;;;;;4915846;29;20448;-79
2023/10/03 05:20:45;;;;;;;16.90;10.80;;;16.40;99.90;;;;;;4961929;28;20455;-80
2023/10/03 05:23:19;;;;;;;19.00;14.10;;;16.90;99.90;;;;;;5031340;28;20713;-79
2023/10/03 05:25:57;;;;;;;15.93;11.00;;;17.20;99.90;;;;;;5026739;28;20486;-79
2023/10/03 05:28:37;;;;;;;12.80;9.90;;;17.30;99.90;;;;;;5015969;28;20554;-79
2023/10/03 05:34:15;;;;;;;15.53;9.57;;;17.70;99.90;;;;;;5019555;28;20534;-79
2023/10/03 05:36:59;;;;;;;14.47;10.70;;;17.80;99.90;;;;;;5019496;28;20475;-81
2023/10/03 05:40:21;;;;;;;;;;;;;;;;;;;;;
2023/10/03 08:24:24;;;;;;;7.00;6.30;;;25.90;99.90;;;;;;4739721;29;20463;-82
2023/10/03 08:41:13;;;;;;;7.53;6.37;;;26.50;99.90;;;;;;4814056;29;20838;-80
2023/10/03 09:29:08;;;;;;;7.40;6.07;;;27.60;99.90;;;;;;4962165;28;20480;-81
2023/10/03 09:32:12;;;;;;;6.70;6.00;;;27.60;99.90;;;;;;4981537;28;20445;-81
2023/10/03 09:41:03;;;;;;;6.20;5.53;;;27.60;99.90;;;;;;5016740;28;20435;-80
2023/10/03 09:43:37;;;;;;;8.00;5.73;;;28.00;99.90;;;;;;5071444;28;20473;-79
2023/10/03 09:46:38;;;;;;;6.80;6.17;;;27.90;99.90;;;;;;5117730;28;20462;-80
2023/10/03 09:49:40;;;;;;;6.40;5.73;;;28.00;99.90;;;;;;5097724;28;20449;-81
2023/10/03 09:52:22;;;;;;;6.30;5.70;;;28.20;99.90;;;;;;5062927;28;20935;-82
2023/10/03 09:58:37;;;;;;;6.10;5.50;;;28.70;99.90;;;;;;5067575;28;21087;-80
2023/10/03 10:01:49;;;;;;;;;;;;;;;;;;;;;
2023/10/03 10:04:30;;;;;;;6.23;5.63;;;29.70;99.90;;;;;;5093583;28;20516;-79
2023/10/03 10:11:22;;;;;;;6.27;5.67;;;30.40;99.70;;;;;;5035675;28;20533;-81
2023/10/03 10:14:53;;;;;;;5.77;5.20;;;30.20;99.90;;;;;;5092793;28;20447;-80
2023/10/03 10:25:16;;;;;;;;;;;;;;;;;;;;;
2023/10/03 10:37:57;;;;;;;5.60;5.00;;;29.00;99.90;;;;;;5093941;28;20851;-79
2023/10/03 10:44:51;;;;;;;6.20;5.63;;;28.80;99.90;;;;;;5082021;28;20436;-83
2023/10/03 10:48:07;;;;;;;6.07;5.23;;;28.90;99.90;;;;;;5039389;28;20473;-82
2023/10/03 10:51:19;;;;;;;6.40;5.77;;;29.00;99.90;;;;;;4996124;28;20458;-82
2023/10/03 10:53:57;;;;;;;6.03;5.43;;;29.20;99.90;;;;;;5017881;28;20525;-79
2023/10/03 10:56:32;;;;;;;6.57;5.73;;;29.50;99.90;;;;;;5044980;28;20469;-81
2023/10/03 10:59:20;;;;;;;7.10;5.67;;;29.60;99.60;;;;;;5043800;28;20453;-81
2023/10/03 11:02:28;;;;;;;9.37;5.70;;;29.40;99.90;;;;;;5034885;28;20462;-80
2023/10/03 11:05:10;;;;;;;6.00;5.50;;;29.20;99.90;;;;;;5035440;28;20821;-80
2023/10/03 11:10:53;;;;;;;5.87;5.37;;;30.00;99.20;;;;;;5079324;28;20532;-83
2023/10/03 11:13:56;;;;;;;6.10;5.50;;;29.80;99.50;;;;;;5099452;28;20906;-83
2023/10/03 11:17:06;;;;;;;6.23;5.70;;;29.70;99.60;;;;;;5092289;28;20495;-81
2023/10/03 11:20:10;;;;;;;8.07;5.97;;;29.60;99.70;;;;;;5083307;28;20483;-80
2023/10/03 11:23:30;;;;;;;6.80;5.87;;;29.60;99.90;;;;;;5090071;28;20512;-78
2023/10/03 11:28:59;;;;;;;7.27;6.00;;;28.50;99.90;;;;;;5094096;28;20998;-79
2023/10/03 11:31:42;;;;;;;9.17;6.00;;;28.40;99.90;;;;;;5090616;28;20546;-79
2023/10/03 11:34:16;;;;;;;6.10;5.60;;;28.30;99.90;;;;;;5094640;28;20469;-80
2023/10/03 11:36:47;;;;;;;6.47;5.87;;;28.20;99.90;;;;;;5093643;28;20495;-82
2023/10/03 11:39:23;;;;;;;7.43;6.73;;;27.90;99.90;;;;;;5100428;28;20443;-78
2023/10/03 11:41:56;;;;;;;7.13;5.63;;;27.90;99.90;;;;;;5104483;28;20447;-80
2023/10/03 11:44:24;;;;;;;7.67;6.50;;;28.10;99.90;;;;;;5111894;28;20448;-81
2023/10/03 11:46:54;;;;;;;7.50;5.97;;;28.40;99.90;;;;;;5110692;28;20523;-80
2023/10/03 11:49:28;;;;;;;6.97;6.37;;;28.20;99.90;;;;;;5087741;28;20475;-81
2023/10/03 11:52:00;;;;;;;8.80;6.40;;;27.80;99.90;;;;;;5105106;28;20464;-81
2023/10/03 11:54:35;;;;;;;6.30;5.70;;;27.70;99.90;;;;;;5102971;28;20451;-82
2023/10/03 11:57:11;;;;;;;8.00;6.17;;;27.70;99.90;;;;;;5102740;28;20558;-80
2023/10/03 11:59:50;;;;;;;6.23;5.70;;;27.40;99.90;;;;;;5101228;28;20467;-80
2023/10/03 12:02:26;;;;;;;6.20;5.67;;;27.60;99.90;;;;;;5102360;28;20443;-83
2023/10/03 12:05:04;;;;;;;6.90;6.00;;;27.60;99.90;;;;;;5102171;28;20455;-80
2023/10/03 12:07:57;;;;;;;6.47;5.90;;;27.50;99.90;;;;;;5100277;28;20448;-79
2023/10/03 12:10:50;;;;;;;6.70;6.10;;;27.50;99.90;;;;;;5099530;28;20505;-80
2023/10/03 12:13:36;;;;;;;7.03;5.50;;;27.50;99.90;;;;;;5098784;28;20893;-81
2023/10/03 12:16:15;;;;;;;7.23;6.53;;;27.50;99.90;;;;;;5101209;28;20502;-81
2023/10/03 12:18:43;;;;;;;7.60;6.80;;;27.60;99.90;;;;;;5099059;28;20447;-82
2023/10/03 12:21:20;;;;;;;8.73;5.90;;;28.00;99.90;;;;;;5101211;28;20472;-82
2023/10/03 12:24:11;;;;;;;6.73;6.13;;;27.90;99.90;;;;;;5090913;28;20966;-84
2023/10/03 12:26:53;;;;;;;7.63;6.93;;;27.50;99.90;;;;;;5099632;28;20464;-84
2023/10/03 12:32:20;;;;;;;6.83;6.23;;;27.60;99.90;;;;;;5089487;28;20535;-83
2023/10/03 12:35:04;;;;;;;6.83;6.30;;;27.70;99.90;;;;;;5099062;28;21017;-82
2023/10/03 12:37:46;;;;;;;9.50;6.10;;;27.40;99.90;;;;;;5093354;28;20448;-80
2023/10/03 12:40:18;;;;;;;7.20;6.47;;;27.10;99.90;;;;;;5100265;28;20479;-82
2023/10/03 12:42:58;;;;;;;7.30;6.70;;;27.10;99.90;;;;;;5098185;28;20444;-80
2023/10/03 12:45:28;;;;;;;10.50;6.43;;;27.20;99.90;;;;;;5097962;28;20463;-81
2023/10/03 12:48:03;;;;;;;6.63;5.87;;;27.20;99.90;;;;;;5097798;28;20825;-82
2023/10/03 12:50:40;;;;;;;7.10;6.40;;;27.40;99.90;;;;;;5091052;28;20458;-79
2023/10/03 12:53:24;;;;;;;7.40;6.73;;;27.10;99.90;;;;;;5087360;28;20476;-79
2023/10/03 12:55:57;;;;;;;7.20;6.60;;;27.10;99.90;;;;;;5086338;28;20456;-79
2023/10/03 12:58:28;;;;;;;6.67;6.07;;;27.10;99.90;;;;;;5097837;28;20436;-78
2023/10/03 13:01:14;;;;;;;7.37;6.60;;;27.00;99.90;;;;;;5094767;28;20472;-80
2023/10/03 13:04:50;;;;;;;6.57;5.97;;;26.70;99.90;;;;;;5086884;28;20450;-80
2023/10/03 13:11:13;;;;;;;8.93;7.23;;;26.40;99.90;;;;;;5068005;28;20448;-83
2023/10/03 13:17:18;;;;;;;8.13;7.10;;;26.00;99.90;;;;;;4898940;28;20477;-80
2023/10/03 15:00:25;;;;;;;;;;;;;;;;;;;;;
2023/10/03 15:46:56;;;;;;;9.40;5.30;;;23.00;99.90;;;;;;1204448;26;20479;-79
2023/10/03 15:49:38;;;;;;;4.73;4.30;;;22.30;99.90;;;;;;5099484;28;20511;-79
2023/10/03 15:52:22;;;;;;;7.37;4.20;;;21.40;99.90;;;;;;5102200;28;20442;-81
2023/10/03 15:55:19;;;;;;;8.20;4.40;;;20.80;99.90;;;;;;5107280;28;20484;-81
2023/10/03 15:58:57;;;;;;;5.37;4.00;;;20.60;99.90;;;;;;5105309;28;20567;-78
2023/10/03 16:02:21;;;;;;;;;;;;;;;;;;;;;
2023/10/03 16:05:00;;;;;;;2.43;2.23;;;19.10;99.90;;;;;;5040991;28;20451;-76
2023/10/03 16:29:07;;;;;;;2.53;2.33;;;17.90;99.90;;;;;;4931745;28;20492;-80
2023/10/03 16:32:26;;;;;;;2.67;1.77;;;17.90;99.90;;;;;;4948735;28;20458;-80
2023/10/03 16:39:03;;;;;;;2.50;2.30;;;17.80;99.90;;;;;;5028850;28;20477;-81
2023/10/03 16:45:03;;;;;;;3.50;2.00;;;17.40;99.90;;;;;;5058329;28;20817;-82
2023/10/03 16:48:07;;;;;;;2.60;2.40;;;17.20;99.90;;;;;;5082484;28;20468;-80
2023/10/03 16:51:15;;;;;;;3.43;2.40;;;17.10;99.90;;;;;;5082783;28;20455;-79
2023/10/03 16:54:33;;;;;;;2.40;2.20;;;17.10;99.90;;;;;;5078793;28;20995;-79
2023/10/03 16:57:27;;;;;;;2.63;1.90;;;17.10;99.90;;;;;;5078496;28;20528;-81
2023/10/03 17:00:31;;;;;;;1.97;1.87;;;17.00;99.90;;;;;;5069354;28;20912;-82
2023/10/03 17:04:10;;;;;;;;;;;;;;;;;;;;;
2023/10/03 17:14:16;;;;;;;2.13;1.93;;;16.70;99.90;;;;;;4963848;28;20429;-82
2023/10/03 17:17:30;;;;;;;2.10;2.00;;;16.70;99.90;;;;;;4942147;29;20475;-80
2023/10/03 17:23:57;;;;;;;;;;;;;;;;;;;;;
2023/10/03 17:27:16;;;;;;;1.93;1.83;;;16.50;99.90;;;;;;5000756;28;20452;-79
2023/10/03 17:36:45;;;;;;;;;;;;;;;;;;;;;
2023/10/03 17:39:33;;;;;;;2.73;2.17;;;16.40;99.90;;;;;;5102788;28;20430;-83
2023/10/03 17:42:36;;;;;;;2.73;1.60;;;16.40;99.90;;;;;;5103463;28;20551;-80
2023/10/03 17:45:42;;;;;;;;;;;;;;;;;;;;;
2023/10/03 17:54:54;;;;;;;2.03;1.93;;;16.40;99.90;;;;;;5087031;28;20443;-82
2023/10/03 18:01:18;;;;;;;;;;;;;;;;;;;;;
2023/10/03 18:04:22;;;;;;;2.97;1.83;;;16.00;99.90;;;;;;4993809;28;20459;-79
2023/10/03 18:07:41;;;;;;;;;;;;;;;;;;;;;
2023/10/03 18:13:58;;;;;;;2.20;2.00;;;15.60;99.90;;;;;;5028705;28;20428;-80
2023/10/03 18:27:32;;;;;;;1.90;1.80;;;15.70;99.90;;;;;;5074373;28;20461;-79
2023/10/03 18:51:15;;;;;;;1.97;1.87;;;15.40;99.90;;;;;;5055718;28;20436;-79
2023/10/03 18:57:25;;;;;;;;;;;;;;;;;;;;;
2023/10/03 19:10:45;;;;;;;;;;;;;;;;;;;;;
2023/10/03 19:23:09;;;;;;;4.03;2.93;;;15.00;99.90;;;;;;5078784;28;20476;-82
2023/10/03 19:25:53;;;;;;;3.43;2.40;;;15.00;99.90;;;;;;5084028;28;20504;-80
2023/10/03 19:28:51;;;;;;;3.10;2.33;;;15.10;99.90;;;;;;5065851;28;20449;-80
2023/10/03 19:32:00;;;;;;;2.60;2.23;;;15.00;99.90;;;;;;5072860;28;20495;-80
2023/10/03 19:35:04;;;;;;;2.57;2.37;;;14.90;99.90;;;;;;5070859;28;20494;-81
2023/10/03 19:41:44;;;;;;;2.13;1.93;;;15.00;99.90;;;;;;4972509;28;20863;-79
2023/10/03 19:47:31;;;;;;;3.37;2.73;;;14.70;99.90;;;;;;4999694;28;20479;-82
2023/10/03 20:03:51;;;;;;;;;;;;;;;;;;;;;
2023/10/03 20:07:01;;;;;;;3.63;2.80;;;14.80;99.90;;;;;;5028003;28;20455;-83
2023/10/03 20:12:46;;;;;;;3.33;2.40;;;14.80;99.90;;;;;;5048693;28;20946;-81
2023/10/03 20:15:16;;;;;;;3.17;2.10;;;14.90;99.90;;;;;;5075407;28;20461;-79
2023/10/03 20:17:54;;;;;;;2.30;2.10;;;14.70;99.90;;;;;;5077755;28;20511;-81
2023/10/03 20:20:50;;;;;;;;;;;;;;;;;;;;;
2023/10/03 20:23:31;;;;;;;2.80;2.43;;;14.70;99.90;;;;;;5076066;28;20989;-80
2023/10/03 20:26:06;;;;;;;2.90;2.33;;;14.90;99.90;;;;;;5075630;28;20473;-80
2023/10/03 20:28:40;;;;;;;2.93;2.63;;;14.90;99.90;;;;;;5076518;28;20444;-81
2023/10/03 20:31:23;;;;;;;2.60;2.40;;;14.60;99.90;;;;;;5075973;28;20539;-81
2023/10/03 20:33:59;;;;;;;4.97;3.50;;;14.60;99.90;;;;;;5075272;28;20486;-80
2023/10/03 20:36:50;;;;;;;4.97;2.40;;;14.60;99.90;;;;;;5073773;28;21026;-79
2023/10/03 20:39:52;;;;;;;;;;;;;;;;;;;;;
2023/10/03 20:45:37;;;;;;;3.20;2.43;;;14.60;99.90;;;;;;5072695;28;20468;-80
2023/10/03 20:48:19;;;;;;;2.90;2.40;;;14.60;99.90;;;;;;5071889;28;20456;-80
2023/10/03 20:50:55;;;;;;;3.30;2.57;;;14.50;99.90;;;;;;5073317;28;20445;-80
2023/10/03 20:53:32;;;;;;;4.40;2.40;;;14.60;99.90;;;;;;5073657;28;20433;-78
2023/10/03 20:56:33;;;;;;;2.77;2.20;;;14.80;99.90;;;;;;5073412;28;20536;-79
2023/10/03 21:02:36;;;;;;;3.90;2.40;;;14.50;99.90;;;;;;5072906;28;20469;-79
2023/10/03 21:09:10;;;;;;;;;;;;;;;;;;;;;
2023/10/03 22:01:26;;;;;;;2.23;2.00;;;14.20;99.90;;;;;;4912937;29;20546;-79
2023/10/03 22:34:39;;;;;;;2.83;2.00;;;13.90;99.90;;;;;;4881536;29;20470;-82
2023/10/03 22:37:10;;;;;;;2.60;2.10;;;13.80;99.90;;;;;;4937588;28;20510;-80
2023/10/03 22:39:37;;;;;;;2.43;2.20;;;13.90;99.90;;;;;;5070595;28;20613;-79
2023/10/03 22:54:54;;;;;;;;;;;;;;;;;;;;;
2023/10/03 22:57:54;;;;;;;3.00;2.43;;;13.70;99.90;;;;;;5098979;28;20420;-81
2023/10/03 23:00:34;;;;;;;2.77;2.13;;;13.70;99.90;;;;;;5095644;28;20445;-78
2023/10/03 23:03:17;;;;;;;2.53;1.90;;;13.70;99.90;;;;;;5090908;28;20475;-78
2023/10/03 23:06:16;;;;;;;3.30;2.47;;;13.60;99.90;;;;;;5079880;28;20476;-79
2023/10/03 23:08:59;;;;;;;4.20;2.33;;;13.60;99.90;;;;;;5071607;28;20946;-80
2023/10/03 23:11:46;;;;;;;6.70;2.43;;;13.60;99.90;;;;;;5077354;28;20444;-80
2023/10/03 23:17:49;;;;;;;4.00;2.27;;;13.30;99.90;;;;;;5077750;28;20468;-79
2023/10/03 23:20:29;;;;;;;3.40;2.70;;;13.50;99.90;;;;;;4979121;28;20449;-79
2023/10/03 23:23:23;;;;;;;4.40;2.97;;;13.50;99.90;;;;;;4988114;28;20469;-79
2023/10/03 23:26:06;;;;;;;4.20;2.57;;;13.60;99.90;;;;;;4989366;28;20465;-79
2023/10/03 23:28:52;;;;;;;2.70;2.50;;;13.60;99.90;;;;;;5043431;28;20441;-79
2023/10/03 23:31:41;;;;;;;2.60;2.40;;;13.50;99.90;;;;;;5093022;28;20449;-79
2023/10/03 23:41:09;;;;;;;4.03;2.90;;;13.40;99.90;;;;;;5064308;28;20444;-79
2023/10/03 23:44:07;;;;;;;3.63;2.80;;;13.40;99.90;;;;;;5069081;28;20481;-79
2023/10/03 23:50:05;;;;;;;2.97;2.40;;;13.30;99.90;;;;;;5068241;28;20522;-79
2023/10/03 23:52:58;;;;;;;12.70;2.77;;;13.40;99.90;;;;;;5083258;28;20684;-79
2023/10/03 23:55:43;;;;;;;2.23;2.03;;;;;;;;;;5090278;28;20491;-78
2023/10/03 23:58:18;;;;;;;5.03;2.30;;;13.30;99.90;;;;;;5110546;28;20447;-79
